createdAt,value
2018-05-27T00:00:08.547Z,8.40
2018-05-27T00:02:37.688Z,8.90
2018-05-27T00:05:06.147Z,8.83
2018-05-27T00:07:33.870Z,12.80
2018-05-27T00:10:04.989Z,10.23
2018-05-27T00:12:32.500Z,13.40
2018-05-27T00:15:01.666Z,10.30
2018-05-27T00:17:29.180Z,10.20
2018-05-27T00:19:56.678Z,10.50
2018-05-27T00:22:25.472Z,10.97
2018-05-27T00:24:54.965Z,10.97
2018-05-27T00:27:24.121Z,11.53
2018-05-27T00:29:51.604Z,11.90
2018-05-27T00:32:19.161Z,11.73
2018-05-27T00:34:46.670Z,11.67
2018-05-27T00:37:14.138Z,12.97
2018-05-27T00:39:42.409Z,11.30
2018-05-27T00:42:10.880Z,14.23
2018-05-27T00:44:38.341Z,14.87
2018-05-27T00:47:07.757Z,14.97
2018-05-27T00:49:36.195Z,22.03
2018-05-27T00:52:03.704Z,14.90
2018-05-27T00:54:31.957Z,16.67
2018-05-27T00:57:01.123Z,16.37
2018-05-27T00:59:28.599Z,21.70
2018-05-27T01:01:56.153Z,20.03
2018-05-27T01:04:23.626Z,17.90
2018-05-27T01:06:51.109Z,17.80
2018-05-27T01:09:19.534Z,16.17
2018-05-27T01:11:47.933Z,19.07
2018-05-27T01:14:18.848Z,18.33
2018-05-27T01:16:46.357Z,15.47
2018-05-27T01:19:14.932Z,16.47
2018-05-27T01:21:42.446Z,15.93
2018-05-27T01:24:09.947Z,15.97
2018-05-27T01:26:41.893Z,17.27
2018-05-27T01:29:09.352Z,16.47
2018-05-27T01:31:37.777Z,19.53
2018-05-27T01:34:05.265Z,18.27
2018-05-27T01:36:32.732Z,20.20
2018-05-27T01:39:00.223Z,20.50
2018-05-27T01:41:28.511Z,20.67
2018-05-27T01:43:56.751Z,24.60
2018-05-27T01:46:24.231Z,23.77
2018-05-27T01:48:52.710Z,27.47
2018-05-27T01:51:20.177Z,24.00
2018-05-27T01:53:47.672Z,24.60
2018-05-27T01:56:15.158Z,24.23
2018-05-27T01:58:43.656Z,26.47
2018-05-27T02:01:11.167Z,25.97
2018-05-27T02:03:38.641Z,22.30
2018-05-27T02:06:06.111Z,27.30
2018-05-27T02:08:40.616Z,23.27
2018-05-27T02:11:08.248Z,29.23
2018-05-27T02:13:38.420Z,24.37
2018-05-27T02:16:06.656Z,24.77
2018-05-27T02:18:34.914Z,25.30
2018-05-27T02:21:03.180Z,24.80
2018-05-27T02:23:30.637Z,24.97
2018-05-27T02:25:58.100Z,26.13
2018-05-27T02:28:26.523Z,23.67
2018-05-27T02:30:54.005Z,26.70
2018-05-27T02:33:21.468Z,30.07
2018-05-27T02:35:49.982Z,26.47
2018-05-27T02:38:23.697Z,30.60
2018-05-27T02:40:52.229Z,25.97
2018-05-27T02:43:19.720Z,29.70
2018-05-27T02:45:47.196Z,23.37
2018-05-27T02:48:15.432Z,24.83
2018-05-27T02:50:43.826Z,24.23
2018-05-27T02:53:11.328Z,26.57
2018-05-27T02:55:38.802Z,28.40
2018-05-27T02:58:08.233Z,26.23
2018-05-27T03:00:36.622Z,29.27
2018-05-27T03:03:05.000Z,24.80
2018-05-27T03:05:33.472Z,26.73
2018-05-27T03:08:00.963Z,26.63
2018-05-27T03:10:28.417Z,26.63
2018-05-27T03:12:58.600Z,23.87
2018-05-27T03:15:26.093Z,33.03
2018-05-27T03:17:55.269Z,33.60
2018-05-27T03:20:22.952Z,30.87
2018-05-27T03:22:50.435Z,36.10
2018-05-27T03:25:19.592Z,30.47
2018-05-27T03:27:47.076Z,32.47
2018-05-27T03:30:15.330Z,28.67
2018-05-27T03:32:42.960Z,31.60
2018-05-27T03:35:10.420Z,31.30
2018-05-27T03:37:37.955Z,27.60
2018-05-27T03:40:07.215Z,30.13
2018-05-27T03:42:34.676Z,26.87
2018-05-27T03:45:03.067Z,26.57
2018-05-27T03:47:30.529Z,27.57
2018-05-27T03:49:59.781Z,25.30
2018-05-27T03:52:27.360Z,19.37
2018-05-27T03:54:55.751Z,19.43
2018-05-27T03:57:25.569Z,21.03
2018-05-27T03:59:53.966Z,18.03
2018-05-27T04:02:23.127Z,22.27
2018-05-27T04:05:02.416Z,18.50
2018-05-27T04:07:41.757Z,21.73
2018-05-27T04:10:10.183Z,19.27
2018-05-27T04:12:37.651Z,20.07
2018-05-27T04:15:05.863Z,20.63
2018-05-27T04:17:33.356Z,24.13
2018-05-27T04:20:00.835Z,22.50
2018-05-27T04:22:28.345Z,23.67
2018-05-27T04:24:55.836Z,19.60
2018-05-27T04:27:27.600Z,20.33
2018-05-27T04:29:55.055Z,20.80
2018-05-27T04:32:22.527Z,21.63
2018-05-27T04:34:50.000Z,21.17
2018-05-27T04:37:17.472Z,21.47
2018-05-27T04:39:49.298Z,17.30
2018-05-27T04:42:18.809Z,24.97
2018-05-27T04:44:46.302Z,23.80
2018-05-27T04:47:14.545Z,22.50
2018-05-27T04:49:43.501Z,21.80
2018-05-27T04:52:10.977Z,20.37
2018-05-27T04:54:38.458Z,18.77
2018-05-27T04:57:05.924Z,21.60
2018-05-27T04:59:33.385Z,18.20
2018-05-27T05:02:02.162Z,25.70
2018-05-27T05:04:30.702Z,20.90
2018-05-27T05:07:00.113Z,26.03
2018-05-27T05:09:28.660Z,21.77
2018-05-27T05:11:56.083Z,20.40
2018-05-27T05:14:24.491Z,23.93
2018-05-27T05:16:51.948Z,20.40
2018-05-27T05:19:20.185Z,20.73
2018-05-27T05:22:02.056Z,23.67
2018-05-27T05:24:30.554Z,21.87
2018-05-27T05:26:58.040Z,21.93
2018-05-27T05:29:26.490Z,23.63
2018-05-27T05:31:53.949Z,23.00
2018-05-27T05:34:21.415Z,23.87
2018-05-27T05:36:49.899Z,20.80
2018-05-27T05:39:18.359Z,22.10
2018-05-27T05:41:45.998Z,21.90
2018-05-27T05:44:14.214Z,18.43
2018-05-27T05:46:42.685Z,22.60
2018-05-27T05:49:10.131Z,18.20
2018-05-27T05:51:37.607Z,18.07
2018-05-27T05:54:05.083Z,17.27
2018-05-27T05:56:32.541Z,15.50
2018-05-27T05:59:00.795Z,13.30
2018-05-27T06:01:29.017Z,12.83
2018-05-27T06:03:57.529Z,16.63
2018-05-27T06:06:25.000Z,12.60
2018-05-27T06:08:54.339Z,12.00
2018-05-27T06:11:22.277Z,13.13
2018-05-27T06:13:49.737Z,14.03
2018-05-27T06:16:17.222Z,14.27
2018-05-27T06:18:45.061Z,9.57
2018-05-27T06:21:12.534Z,13.03
2018-05-27T06:23:40.110Z,12.73
2018-05-27T06:26:11.424Z,13.30
2018-05-27T06:28:38.899Z,15.37
2018-05-27T06:31:06.477Z,11.97
2018-05-27T06:33:33.935Z,11.37
2018-05-27T06:36:01.399Z,12.37
2018-05-27T06:38:28.866Z,10.27
2018-05-27T06:41:00.055Z,12.43
2018-05-27T06:43:27.535Z,10.27
2018-05-27T06:45:55.008Z,12.17
2018-05-27T06:48:25.610Z,11.17
2018-05-27T06:51:05.659Z,12.30
2018-05-27T06:53:33.303Z,13.37
2018-05-27T06:56:00.756Z,10.70
2018-05-27T06:58:31.384Z,11.50
2018-05-27T07:01:03.271Z,10.83
2018-05-27T07:03:30.736Z,12.00
2018-05-27T07:05:58.207Z,12.00
2018-05-27T07:08:25.668Z,11.50
2018-05-27T07:10:54.127Z,10.07
2018-05-27T07:13:21.605Z,7.55
2018-05-27T07:15:49.051Z,7.53
2018-05-27T07:18:17.402Z,8.17
2018-05-27T07:20:44.908Z,7.87
2018-05-27T07:23:13.350Z,8.10
2018-05-27T07:25:40.822Z,8.63
2018-05-27T07:28:09.329Z,8.70
2018-05-27T07:30:36.917Z,7.63
2018-05-27T07:33:04.430Z,8.07
2018-05-27T07:35:31.917Z,10.53
2018-05-27T07:38:00.424Z,9.30
2018-05-27T07:40:28.749Z,9.97
2018-05-27T07:42:59.482Z,10.37
2018-05-27T07:45:27.005Z,9.17
2018-05-27T07:48:01.723Z,10.37
2018-05-27T07:50:29.958Z,8.87
2018-05-27T07:52:58.412Z,7.90
2018-05-27T07:55:25.874Z,7.60
2018-05-27T07:57:56.790Z,7.85
2018-05-27T08:00:24.479Z,7.78
2018-05-27T08:02:51.937Z,7.53
2018-05-27T08:05:19.521Z,6.47
2018-05-27T08:07:46.980Z,7.33
2018-05-27T08:10:15.429Z,7.28
2018-05-27T08:12:43.224Z,8.68
2018-05-27T08:15:10.708Z,7.37
2018-05-27T08:17:38.211Z,7.37
2018-05-27T08:20:05.751Z,6.93
2018-05-27T08:22:33.164Z,7.03
2018-05-27T08:25:00.619Z,6.45
2018-05-27T08:27:28.085Z,7.68
2018-05-27T08:29:55.591Z,7.12
2018-05-27T08:32:23.060Z,7.43
2018-05-27T08:34:53.968Z,7.00
2018-05-27T08:37:22.215Z,6.70
2018-05-27T08:39:49.683Z,7.20
2018-05-27T08:42:19.136Z,6.40
2018-05-27T08:44:46.599Z,7.10
2018-05-27T08:47:14.065Z,6.90
2018-05-27T08:49:42.547Z,6.75
2018-05-27T08:52:10.021Z,7.28
2018-05-27T08:54:37.482Z,6.65
2018-05-27T08:57:04.956Z,6.25
2018-05-27T08:59:32.403Z,6.90
2018-05-27T09:01:59.873Z,5.65
2018-05-27T09:04:27.323Z,6.35
2018-05-27T09:06:55.675Z,7.22
2018-05-27T09:09:23.157Z,7.00
2018-05-27T09:11:50.603Z,6.00
2018-05-27T09:14:18.073Z,6.12
2018-05-27T09:16:45.537Z,5.90
2018-05-27T09:19:13.904Z,6.30
2018-05-27T09:21:41.360Z,6.00
2018-05-27T09:24:08.825Z,5.78
2018-05-27T09:26:36.291Z,6.65
2018-05-27T09:29:03.752Z,5.32
2018-05-27T09:31:33.128Z,5.97
2018-05-27T09:34:02.538Z,4.60
2018-05-27T09:36:30.132Z,5.87
2018-05-27T09:39:00.637Z,4.37
2018-05-27T09:41:28.220Z,6.20
2018-05-27T09:43:56.491Z,5.55
2018-05-27T09:46:25.833Z,5.35
2018-05-27T09:48:54.157Z,5.75
2018-05-27T09:51:22.421Z,4.93
2018-05-27T09:53:50.619Z,4.75
2018-05-27T09:56:22.092Z,3.80
2018-05-27T09:58:50.319Z,5.57
2018-05-27T10:01:17.801Z,5.80
2018-05-27T10:03:45.345Z,5.82
2018-05-27T10:06:19.782Z,5.07
2018-05-27T10:08:48.026Z,5.10
2018-05-27T10:11:15.519Z,4.43
2018-05-27T10:13:43.774Z,3.97
2018-05-27T10:16:11.467Z,5.95
2018-05-27T10:18:39.861Z,3.80
2018-05-27T10:21:07.377Z,5.12
2018-05-27T10:23:34.834Z,4.05
2018-05-27T10:26:02.372Z,4.00
2018-05-27T10:28:29.782Z,4.85
2018-05-27T10:30:58.309Z,4.50
2018-05-27T10:33:25.800Z,4.75
2018-05-27T10:35:54.205Z,4.22
2018-05-27T10:38:22.536Z,4.28
2018-05-27T10:40:49.997Z,4.37
2018-05-27T10:43:17.452Z,4.05
2018-05-27T10:45:44.958Z,4.50
2018-05-27T10:48:12.420Z,4.85
2018-05-27T10:50:39.876Z,4.40
2018-05-27T10:53:07.382Z,4.60
2018-05-27T10:55:35.921Z,4.20
2018-05-27T10:58:03.351Z,4.03
2018-05-27T11:00:30.817Z,4.82
2018-05-27T11:02:58.628Z,5.45
2018-05-27T11:05:26.072Z,4.15
2018-05-27T11:07:56.878Z,5.45
2018-05-27T11:10:28.599Z,5.20
2018-05-27T11:12:56.074Z,5.03
2018-05-27T11:15:23.525Z,5.05
2018-05-27T11:17:50.993Z,4.15
2018-05-27T11:20:33.590Z,4.28
2018-05-27T11:23:02.092Z,3.90
2018-05-27T11:25:30.696Z,4.28
2018-05-27T11:27:58.961Z,3.62
2018-05-27T11:30:27.210Z,4.07
2018-05-27T11:32:55.678Z,4.40
2018-05-27T11:35:23.147Z,3.85
2018-05-27T11:37:50.621Z,3.40
2018-05-27T11:40:19.043Z,3.17
2018-05-27T11:42:47.484Z,3.20
2018-05-27T11:45:15.930Z,3.08
2018-05-27T11:47:44.324Z,2.90
2018-05-27T11:50:24.998Z,3.87
2018-05-27T11:52:52.548Z,2.70
2018-05-27T11:55:20.993Z,2.95
2018-05-27T11:57:48.516Z,3.62
2018-05-27T12:00:15.982Z,2.80
2018-05-27T12:02:45.458Z,3.30
2018-05-27T12:05:12.944Z,3.15
2018-05-27T12:07:40.407Z,3.65
2018-05-27T12:10:07.888Z,2.85
2018-05-27T12:12:35.377Z,2.55
2018-05-27T12:15:03.774Z,3.15
2018-05-27T12:17:32.249Z,3.20
2018-05-27T12:19:59.711Z,2.78
2018-05-27T12:22:28.175Z,2.80
2018-05-27T12:24:57.751Z,2.70
2018-05-27T12:27:26.156Z,2.60
2018-05-27T12:29:53.718Z,2.90
2018-05-27T12:32:22.460Z,3.30
2018-05-27T12:34:53.355Z,2.75
2018-05-27T12:37:20.867Z,3.05
2018-05-27T12:39:48.383Z,2.70
2018-05-27T12:42:15.871Z,2.58
2018-05-27T12:44:44.168Z,2.60
2018-05-27T12:47:12.398Z,2.78
2018-05-27T12:49:39.915Z,3.35
2018-05-27T12:52:11.155Z,3.50
2018-05-27T12:54:41.852Z,3.20
2018-05-27T12:57:10.096Z,3.25
2018-05-27T12:59:37.591Z,3.05
2018-05-27T13:02:08.125Z,2.95
2018-05-27T13:04:36.379Z,2.40
2018-05-27T13:07:03.846Z,2.67
2018-05-27T13:09:32.726Z,2.67
2018-05-27T13:12:00.182Z,2.62
2018-05-27T13:14:27.647Z,2.47
2018-05-27T13:16:55.260Z,2.70
2018-05-27T13:19:22.640Z,2.87
2018-05-27T13:21:52.109Z,2.95
2018-05-27T13:24:22.251Z,3.20
2018-05-27T13:26:53.443Z,3.35
2018-05-27T13:29:21.844Z,2.90
2018-05-27T13:31:50.075Z,3.40
2018-05-27T13:34:25.275Z,3.50
2018-05-27T13:36:57.259Z,3.50
2018-05-27T13:39:25.506Z,3.40
2018-05-27T13:41:54.719Z,3.22
2018-05-27T13:44:22.208Z,3.17
2018-05-27T13:46:56.087Z,3.40
2018-05-27T13:49:23.573Z,2.87
2018-05-27T13:51:51.016Z,3.47
2018-05-27T13:54:18.500Z,2.70
2018-05-27T13:56:46.061Z,3.30
2018-05-27T13:59:16.915Z,2.87
2018-05-27T14:01:45.157Z,3.00
2018-05-27T14:04:13.699Z,3.00
2018-05-27T14:06:41.935Z,3.40
2018-05-27T14:09:09.441Z,3.00
2018-05-27T14:11:36.909Z,3.20
2018-05-27T14:14:06.363Z,3.33
2018-05-27T14:16:34.549Z,3.50
2018-05-27T14:19:02.060Z,3.30
2018-05-27T14:21:29.603Z,3.95
2018-05-27T14:23:58.007Z,3.28
2018-05-27T14:26:25.513Z,4.18
2018-05-27T14:28:55.748Z,3.60
2018-05-27T14:31:24.009Z,3.60
2018-05-27T14:33:53.468Z,3.67
2018-05-27T14:36:25.287Z,3.80
2018-05-27T14:38:53.538Z,5.00
2018-05-27T14:41:25.441Z,4.20
2018-05-27T14:43:53.892Z,4.18
2018-05-27T14:46:21.361Z,5.10
2018-05-27T14:48:52.637Z,4.47
2018-05-27T14:51:32.385Z,4.40
2018-05-27T14:54:08.796Z,5.43
2018-05-27T14:56:39.593Z,4.90
2018-05-27T14:59:09.437Z,4.80
2018-05-27T15:01:39.814Z,4.65
2018-05-27T15:04:24.962Z,4.90
2018-05-27T15:06:59.410Z,6.22
2018-05-27T15:09:32.625Z,6.05
2018-05-27T15:12:06.176Z,5.40
2018-05-27T15:14:38.034Z,5.55
2018-05-27T15:17:12.203Z,5.82
2018-05-27T15:19:44.269Z,5.37
2018-05-27T15:22:16.540Z,4.95
2018-05-27T15:24:50.495Z,5.40
2018-05-27T15:27:21.285Z,5.10
2018-05-27T15:29:53.763Z,5.07
2018-05-27T15:32:28.288Z,5.60
2018-05-27T15:35:02.197Z,5.43
2018-05-27T15:37:38.377Z,5.40
2018-05-27T15:40:12.211Z,4.80
2018-05-27T15:42:44.428Z,4.68
2018-05-27T15:45:16.619Z,4.30
2018-05-27T15:47:46.544Z,4.72
2018-05-27T15:50:17.074Z,5.10
2018-05-27T15:52:52.897Z,5.18
2018-05-27T15:55:29.000Z,5.18
2018-05-27T15:58:00.368Z,4.70
2018-05-27T16:00:36.068Z,4.68
2018-05-27T16:03:06.644Z,4.65
2018-05-27T16:05:36.765Z,4.57
2018-05-27T16:08:11.365Z,5.15
2018-05-27T16:10:45.468Z,4.60
2018-05-27T16:13:16.445Z,4.53
2018-05-27T16:15:47.318Z,4.93
2018-05-27T16:20:57.662Z,5.28
2018-05-27T16:23:27.957Z,6.75
2018-05-27T16:25:59.495Z,5.93
2018-05-27T16:28:32.278Z,6.60
2018-05-27T16:31:04.289Z,4.65
2018-05-27T16:33:37.951Z,5.28
2018-05-27T16:36:12.368Z,5.57
2018-05-27T16:38:44.817Z,5.20
2018-05-27T16:43:51.071Z,6.20
2018-05-27T16:46:22.976Z,6.50
2018-05-27T16:48:53.388Z,5.95
2018-05-27T16:51:30.192Z,5.50
2018-05-27T16:54:01.659Z,5.47
2018-05-27T16:56:36.220Z,5.20
2018-05-27T16:59:09.333Z,5.12
2018-05-27T17:01:39.686Z,5.53
2018-05-27T17:04:12.642Z,6.07
2018-05-27T17:06:46.085Z,6.03
2018-05-27T17:11:59.854Z,6.45
2018-05-27T17:14:33.297Z,8.10
2018-05-27T17:17:04.544Z,5.75
2018-05-27T17:19:37.257Z,5.95
2018-05-27T17:22:15.332Z,6.03
2018-05-27T17:24:46.100Z,5.95
2018-05-27T17:27:25.094Z,5.22
2018-05-27T17:29:58.323Z,5.93
2018-05-27T17:32:29.493Z,6.28
2018-05-27T17:35:02.302Z,6.68
2018-05-27T17:37:33.854Z,6.22
2018-05-27T17:40:09.867Z,8.25
2018-05-27T17:42:44.091Z,7.00
2018-05-27T17:45:17.643Z,15.20
2018-05-27T17:47:48.063Z,6.85
2018-05-27T17:50:19.116Z,8.95
2018-05-27T17:53:01.230Z,6.95
2018-05-27T17:55:35.316Z,6.50
2018-05-27T17:58:06.155Z,6.95
2018-05-27T18:00:39.356Z,6.40
2018-05-27T18:03:11.772Z,7.30
2018-05-27T18:05:51.773Z,7.43
2018-05-27T18:08:24.764Z,6.87
2018-05-27T18:10:56.359Z,6.75
2018-05-27T18:13:30.177Z,7.55
2018-05-27T18:16:14.847Z,7.70
2018-05-27T18:21:36.996Z,6.70
2018-05-27T18:27:08.152Z,7.22
2018-05-27T18:29:35.938Z,7.12
2018-05-27T18:32:04.317Z,7.35
2018-05-27T18:34:31.748Z,7.65
2018-05-27T18:36:59.868Z,8.45
2018-05-27T18:39:27.298Z,7.72
2018-05-27T18:41:55.018Z,7.47
2018-05-27T18:44:23.078Z,8.80
2018-05-27T18:46:50.503Z,8.45
2018-05-27T18:49:17.965Z,8.82
2018-05-27T18:51:45.426Z,7.15
2018-05-27T18:54:12.851Z,9.68
2018-05-27T18:56:40.309Z,9.00
2018-05-27T18:59:07.835Z,9.35
2018-05-27T19:01:35.243Z,9.48
2018-05-27T19:04:02.678Z,7.82
2018-05-27T19:06:30.862Z,8.82
2018-05-27T19:08:58.363Z,9.27
2018-05-27T19:11:26.820Z,9.52
2018-05-27T19:13:54.517Z,9.18
2018-05-27T19:16:23.558Z,8.68
2018-05-27T19:18:50.985Z,10.27
2018-05-27T19:21:19.178Z,9.98
2018-05-27T19:23:49.129Z,10.68
2018-05-27T19:26:16.546Z,9.77
2018-05-27T19:28:44.754Z,12.63
2018-05-27T19:31:12.955Z,9.30
2018-05-27T19:33:40.758Z,9.70
2018-05-27T19:36:09.599Z,9.82
2018-05-27T19:38:37.050Z,11.32
2018-05-27T19:41:05.269Z,10.30
2018-05-27T19:43:32.786Z,9.75
2018-05-27T19:46:00.727Z,10.33
2018-05-27T19:48:37.862Z,9.83
2018-05-27T19:51:05.741Z,11.13
2018-05-27T19:53:33.158Z,10.80
2018-05-27T19:56:01.274Z,10.57
2018-05-27T19:58:28.894Z,11.32
2018-05-27T20:00:56.344Z,11.03
2018-05-27T20:03:23.851Z,11.63
2018-05-27T20:05:51.307Z,11.43
2018-05-27T20:08:18.763Z,12.40
2018-05-27T20:10:47.702Z,12.03
2018-05-27T20:13:15.229Z,11.83
2018-05-27T20:15:43.890Z,11.20
2018-05-27T20:18:11.326Z,11.53
2018-05-27T20:20:38.858Z,9.70
2018-05-27T20:23:06.752Z,10.97
2018-05-27T20:25:34.206Z,10.20
2018-05-27T20:28:02.714Z,10.73
2018-05-27T20:30:30.686Z,10.83
2018-05-27T20:32:58.511Z,11.63
2018-05-27T20:35:25.936Z,9.90
2018-05-27T20:37:54.150Z,11.80
2018-05-27T20:40:22.333Z,11.57
2018-05-27T20:42:50.266Z,10.10
2018-05-27T20:45:18.663Z,11.20
2018-05-27T20:47:46.762Z,11.83
2018-05-27T20:50:14.270Z,11.87
2018-05-27T20:52:42.757Z,10.23
2018-05-27T20:55:10.951Z,11.47
2018-05-27T20:57:38.374Z,10.93
2018-05-27T21:00:05.801Z,11.70
2018-05-27T21:02:34.782Z,12.10
2018-05-27T21:05:02.495Z,12.00
2018-05-27T21:07:30.815Z,13.32
2018-05-27T21:09:58.387Z,10.27
2018-05-27T21:15:04.587Z,10.07
2018-05-27T21:17:32.279Z,11.60
2018-05-27T21:20:00.834Z,12.33
2018-05-27T21:22:28.299Z,11.47
2018-05-27T21:24:55.710Z,11.40
2018-05-27T21:27:23.162Z,12.80
2018-05-27T21:29:50.623Z,12.73
2018-05-27T21:32:18.692Z,12.70
2018-05-27T21:34:46.478Z,13.50
2018-05-27T21:37:15.198Z,12.20
2018-05-27T21:39:42.669Z,13.80
2018-05-27T21:42:11.610Z,12.93
2018-05-27T21:44:39.457Z,12.67
2018-05-27T21:47:07.591Z,13.90
2018-05-27T21:49:35.330Z,13.67
2018-05-27T21:52:03.727Z,13.50
2018-05-27T21:54:33.880Z,15.13
2018-05-27T21:57:03.057Z,13.77
2018-05-27T21:59:30.671Z,14.43
2018-05-27T22:01:59.485Z,13.77
2018-05-27T22:04:26.909Z,12.43
2018-05-27T22:06:54.353Z,12.00
2018-05-27T22:09:22.558Z,12.07
2018-05-27T22:11:50.998Z,14.17
2018-05-27T22:14:19.330Z,13.70
2018-05-27T22:16:46.782Z,11.70
2018-05-27T22:19:14.870Z,15.13
2018-05-27T22:21:42.309Z,13.67
2018-05-27T22:24:10.254Z,13.33
2018-05-27T22:26:37.691Z,15.00
2018-05-27T22:29:06.233Z,14.13
2018-05-27T22:31:34.039Z,15.83
2018-05-27T22:34:02.763Z,13.60
2018-05-27T22:36:30.458Z,13.57
2018-05-27T22:38:58.129Z,13.80
2018-05-27T22:41:26.347Z,13.83
2018-05-27T22:43:53.872Z,14.20
2018-05-27T22:46:22.618Z,14.30
2018-05-27T22:48:50.275Z,13.90
2018-05-27T22:51:17.704Z,15.57
2018-05-27T22:53:45.162Z,11.90
2018-05-27T22:56:12.678Z,13.70
2018-05-27T22:58:40.750Z,11.53
2018-05-27T23:01:08.263Z,11.07
2018-05-27T23:03:35.702Z,12.00
2018-05-27T23:06:04.019Z,15.57
2018-05-27T23:08:31.513Z,10.73
2018-05-27T23:11:00.001Z,13.60
2018-05-27T23:13:28.227Z,11.70
2018-05-27T23:15:55.650Z,11.53
2018-05-27T23:18:23.850Z,11.80
2018-05-27T23:20:51.670Z,11.23
2018-05-27T23:23:19.365Z,10.53
2018-05-27T23:25:46.797Z,11.97
2018-05-27T23:28:14.358Z,10.23
2018-05-27T23:30:44.387Z,10.63
2018-05-27T23:33:12.775Z,9.93
2018-05-27T23:35:40.961Z,9.63
2018-05-27T23:38:08.799Z,9.83
2018-05-27T23:40:36.218Z,9.43
2018-05-27T23:43:04.203Z,9.33
2018-05-27T23:45:32.930Z,10.37
2018-05-27T23:48:01.125Z,10.53
2018-05-27T23:50:28.571Z,11.10
2018-05-27T23:52:56.022Z,9.93
2018-05-27T23:55:24.721Z,9.63
2018-05-27T23:57:52.236Z,10.77
